createdAt,value
2022-08-19T00:04:02.890Z,100714.41
2022-08-19T00:09:06.776Z,100723.81
2022-08-19T00:14:10.998Z,100722.38
2022-08-19T00:19:12.876Z,100714.41
2022-08-19T00:24:16.492Z,100715.97
2022-08-19T00:29:21.647Z,100718.25
2022-08-19T00:34:24.605Z,100711.88
2022-08-19T00:39:26.700Z,100706.31
2022-08-19T00:44:30.336Z,100706.47
2022-08-19T00:49:37.388Z,100711.16
2022-08-19T00:54:40.890Z,100712.72
2022-08-19T00:59:56.502Z,100699.78
2022-08-19T01:05:07.913Z,100705.19
2022-08-19T01:10:14.163Z,100703.50
2022-08-19T01:15:20.898Z,100720.97
2022-08-19T01:20:24.520Z,100719.09
2022-08-19T01:25:34.004Z,100725.75
2022-08-19T01:30:36.936Z,100713.09
2022-08-19T01:35:38.940Z,100718.25
2022-08-19T01:40:41.152Z,100724.38
2022-08-19T01:45:43.784Z,100729.88
2022-08-19T01:50:46.158Z,100730.72
2022-08-19T01:55:49.863Z,100734.44
2022-08-19T02:00:52.118Z,100739.09
2022-08-19T02:06:03.888Z,100730.72
2022-08-19T02:11:07.006Z,100727.88
2022-08-19T02:16:09.075Z,100735.25
2022-08-19T02:21:12.196Z,100737.63
2022-08-19T02:26:15.105Z,100740.78
2022-08-19T02:31:19.624Z,100750.88
2022-08-19T02:36:21.739Z,100739.22
2022-08-19T02:41:29.609Z,100729.56
2022-08-19T02:46:34.645Z,100738.09
2022-08-19T02:51:41.925Z,100733.53
2022-08-19T02:56:45.225Z,100740.06
2022-08-19T03:01:47.433Z,100737.25
2022-08-19T03:06:49.405Z,100738.22
2022-08-19T03:11:52.809Z,100744.22
2022-08-19T03:16:55.007Z,100749.44
2022-08-19T03:21:56.977Z,100750.88
2022-08-19T03:26:59.952Z,100753.44
2022-08-19T03:32:05.061Z,100751.00
2022-08-19T03:37:13.314Z,100755.53
2022-08-19T03:42:38.578Z,100766.75
2022-08-19T03:47:38.546Z,100761.91
2022-08-19T03:52:40.845Z,100758.66
2022-08-19T03:57:48.981Z,100764.06
2022-08-19T04:02:58.631Z,100758.13
2022-08-19T04:08:03.113Z,100752.25
2022-08-19T04:13:07.365Z,100762.91
2022-08-19T04:18:10.799Z,100767.88
2022-08-19T04:23:14.851Z,100761.06
2022-08-19T04:28:17.518Z,100753.94
2022-08-19T04:33:26.495Z,100750.41
2022-08-19T04:38:30.792Z,100748.00
2022-08-19T04:43:34.142Z,100758.38
2022-08-19T04:48:37.040Z,100771.00
2022-08-19T04:53:46.505Z,100768.75
2022-08-19T04:58:52.916Z,100776.38
2022-08-19T05:03:54.909Z,100772.56
2022-08-19T05:08:57.380Z,100776.97
2022-08-19T05:13:59.480Z,100786.59
2022-08-19T05:19:22.116Z,100795.25
2022-08-19T05:24:25.002Z,100796.13
2022-08-19T05:29:31.802Z,100803.50
2022-08-19T05:34:39.506Z,100799.38
2022-08-19T05:39:41.880Z,100793.44
2022-08-19T05:44:45.807Z,100794.28
2022-08-19T05:49:50.914Z,100802.06
2022-08-19T05:54:53.423Z,100807.63
2022-08-19T05:59:58.204Z,100796.25
2022-08-19T06:05:00.828Z,100803.63
2022-08-19T06:10:03.967Z,100813.16
2022-08-19T06:15:12.467Z,100812.44
2022-08-19T06:20:16.062Z,100806.56
2022-08-19T06:25:18.751Z,100809.78
2022-08-19T06:30:20.964Z,100815.44
2022-08-19T06:35:22.887Z,100819.88
2022-08-19T06:40:25.400Z,100825.06
2022-08-19T06:45:34.806Z,100827.22
2022-08-19T06:50:39.760Z,100821.53
2022-08-19T06:55:43.055Z,100827.88
2022-08-19T07:00:45.312Z,100832.53
2022-08-19T07:05:47.406Z,100834.66
2022-08-19T07:10:50.300Z,100839.31
2022-08-19T07:15:52.102Z,100836.16
2022-08-19T07:21:11.263Z,100845.63
2022-08-19T07:26:27.907Z,100849.94
2022-08-19T07:31:31.090Z,100837.28
2022-08-19T07:36:34.251Z,100843.72
2022-08-19T07:41:38.230Z,100838.63
2022-08-19T07:46:43.090Z,100851.81
2022-08-19T07:51:51.119Z,100862.91
2022-08-19T07:56:54.047Z,100865.59
2022-08-19T08:01:56.671Z,100867.44
2022-08-19T08:07:17.263Z,100865.47
2022-08-19T08:12:36.710Z,100870.56
2022-08-19T08:17:48.687Z,100877.81
2022-08-19T08:23:10.539Z,100872.53
2022-08-19T08:28:17.728Z,100877.91
2022-08-19T08:33:33.831Z,100873.13
2022-08-19T08:38:40.172Z,100880.78
2022-08-19T08:43:47.009Z,100887.78
2022-08-19T08:49:00.923Z,100885.38
2022-08-19T08:54:09.891Z,100886.16
2022-08-19T08:59:22.801Z,100888.84
2022-08-19T09:04:25.436Z,100887.59
2022-08-19T09:09:33.119Z,100895.97
2022-08-19T09:14:57.189Z,100890.06
2022-08-19T09:20:09.053Z,100886.88
2022-08-19T09:25:13.848Z,100890.16
2022-08-19T09:30:19.650Z,100892.03
2022-08-19T09:35:24.612Z,100892.03
2022-08-19T09:40:30.584Z,100886.75
2022-08-19T09:45:34.023Z,100886.13
2022-08-19T09:50:51.536Z,100880.22
2022-08-19T09:55:57.491Z,100885.09
2022-08-19T10:01:01.169Z,100887.66
2022-08-19T10:06:05.521Z,100892.25
2022-08-19T10:11:27.924Z,100885.19
2022-08-19T10:16:40.375Z,100881.81
2022-08-19T10:21:42.296Z,100869.38
2022-08-19T10:26:48.815Z,100874.00
2022-08-19T10:32:03.847Z,100874.03
2022-08-19T10:37:10.838Z,100862.41
2022-08-19T10:42:17.369Z,100860.25
2022-08-19T10:47:24.704Z,100852.75
2022-08-19T10:52:38.873Z,100852.19
2022-08-19T11:03:04.216Z,100858.41
2022-08-19T11:08:22.218Z,100848.47
2022-08-19T11:13:24.674Z,100857.88
2022-08-19T11:18:27.203Z,100842.69
2022-08-19T11:23:29.145Z,100845.28
2022-08-19T11:28:30.961Z,100841.41
2022-08-19T11:33:33.872Z,100832.16
2022-08-19T11:38:37.221Z,100832.44
2022-08-19T11:43:40.809Z,100828.47
2022-08-19T11:48:42.959Z,100825.38
2022-08-19T11:53:44.905Z,100827.06
2022-08-19T11:58:46.924Z,100829.22
2022-08-19T12:03:50.919Z,100824.13
2022-08-19T12:08:53.324Z,100828.97
2022-08-19T12:13:55.464Z,100817.13
2022-08-19T12:18:59.186Z,100830.94
2022-08-19T12:24:03.069Z,100818.97
2022-08-19T12:29:05.203Z,100829.22
2022-08-19T12:34:07.444Z,100816.44
2022-08-19T12:39:11.076Z,100818.88
2022-08-19T12:44:14.777Z,100817.03
2022-08-19T12:49:43.560Z,100806.66
2022-08-19T12:54:38.886Z,100806.91
2022-08-19T12:59:40.755Z,100807.09
2022-08-19T13:04:42.670Z,100791.69
2022-08-19T13:09:44.573Z,100798.34
2022-08-19T13:14:49.675Z,100794.38
2022-08-19T13:19:51.981Z,100794.63
2022-08-19T13:24:54.199Z,100791.53
2022-08-19T13:30:14.791Z,100783.88
2022-08-19T13:35:17.800Z,100783.28
2022-08-19T13:40:25.069Z,100783.53
2022-08-19T13:45:28.576Z,100776.16
2022-08-19T13:50:34.432Z,100773.78
2022-08-19T13:55:38.629Z,100776.22
2022-08-19T14:00:44.344Z,100774.91
2022-08-19T14:05:47.890Z,100785.94
2022-08-19T14:10:50.671Z,100778.47
2022-08-19T14:15:52.765Z,100783.09
2022-08-19T14:20:55.034Z,100778.72
2022-08-19T14:26:05.780Z,100784.13
2022-08-19T14:31:07.951Z,100782.16
2022-08-19T14:36:09.933Z,100765.75
2022-08-19T14:41:22.051Z,100762.38
2022-08-19T14:46:28.198Z,100764.13
2022-08-19T14:51:31.870Z,100763.56
2022-08-19T14:56:33.824Z,100772.81
2022-08-19T15:01:36.065Z,100768.81
2022-08-19T15:06:38.040Z,100765.97
2022-08-19T15:11:39.905Z,100765.41
2022-08-19T15:16:43.033Z,100778.19
2022-08-19T15:21:44.918Z,100768.38
2022-08-19T15:26:46.802Z,100778.72
2022-08-19T15:31:48.542Z,100780.41
2022-08-19T15:36:51.038Z,100795.88
2022-08-19T15:41:53.528Z,100792.03
2022-08-19T15:46:55.546Z,100793.47
2022-08-19T15:51:58.227Z,100792.94
2022-08-19T15:57:18.769Z,100798.06
2022-08-19T16:02:42.816Z,100793.97
2022-08-19T16:07:49.050Z,100800.91
2022-08-19T16:12:51.128Z,100809.03
2022-08-19T16:17:55.485Z,100803.63
2022-08-19T16:22:59.785Z,100803.19
2022-08-19T16:28:06.240Z,100804.78
2022-08-19T16:33:10.888Z,100805.47
2022-08-19T16:38:12.752Z,100811.00
2022-08-19T16:43:14.683Z,100808.66
2022-08-19T16:48:16.799Z,100807.34
2022-08-19T16:53:21.472Z,100804.47
2022-08-19T16:58:28.342Z,100805.19
2022-08-19T17:03:36.352Z,100804.66
2022-08-19T17:08:39.228Z,100802.38
2022-08-19T17:13:41.060Z,100797.53
2022-08-19T17:18:45.248Z,100807.38
2022-08-19T17:23:47.152Z,100804.69
2022-08-19T17:28:51.639Z,100791.31
2022-08-19T17:33:54.954Z,100798.78
2022-08-19T17:38:59.656Z,100797.72
2022-08-19T17:44:03.019Z,100796.88
2022-08-19T17:49:05.163Z,100795.50
2022-08-19T17:54:09.260Z,100804.59
2022-08-19T17:59:13.856Z,100818.47
2022-08-19T18:04:17.412Z,100840.03
2022-08-19T18:09:19.424Z,100875.66
2022-08-19T18:14:32.177Z,100848.47
2022-08-19T18:19:41.571Z,100856.16
2022-08-19T18:24:46.001Z,100859.38
2022-08-19T18:29:48.219Z,100860.09
2022-08-19T18:34:49.980Z,100864.78
2022-08-19T18:40:10.358Z,100866.50
2022-08-19T18:45:31.473Z,100870.28
2022-08-19T18:50:33.648Z,100879.28
2022-08-19T18:55:35.424Z,100873.13
2022-08-19T19:00:37.732Z,100874.41
2022-08-19T19:05:44.435Z,100884.38
2022-08-19T19:10:46.424Z,100880.00
2022-08-19T19:15:52.464Z,100890.06
2022-08-19T19:20:55.188Z,100889.06
2022-08-19T19:25:57.275Z,100893.63
2022-08-19T19:30:59.378Z,100894.72
2022-08-19T19:36:01.600Z,100890.91
2022-08-19T19:41:04.585Z,100903.34
2022-08-19T19:46:06.713Z,100907.03
2022-08-19T19:51:10.754Z,100912.97
2022-08-19T19:56:13.099Z,100905.47
2022-08-19T20:01:21.069Z,100912.16
2022-08-19T20:06:25.289Z,100914.69
2022-08-19T20:11:36.134Z,100917.56
2022-08-19T20:16:40.500Z,100919.41
2022-08-19T20:21:46.021Z,100915.13
2022-08-19T20:26:53.487Z,100923.31
2022-08-19T20:31:59.310Z,100922.50
2022-08-19T20:37:02.366Z,100932.63
2022-08-19T20:42:04.331Z,100934.72
2022-08-19T20:47:06.446Z,100937.16
2022-08-19T20:52:08.947Z,100931.59
2022-08-19T20:57:10.918Z,100937.00
2022-08-19T21:02:13.015Z,100932.75
2022-08-19T21:07:15.812Z,100929.53
2022-08-19T21:12:18.008Z,100928.59
2022-08-19T21:17:19.911Z,100924.66
2022-08-19T21:22:21.600Z,100919.47
2022-08-19T21:27:23.374Z,100917.38
2022-08-19T21:32:25.449Z,100910.97
2022-08-19T21:37:27.316Z,100919.47
2022-08-19T21:42:29.198Z,100927.56
2022-08-19T21:47:31.344Z,100931.47
2022-08-19T21:52:33.788Z,100935.66
2022-08-19T21:57:36.271Z,100943.94
2022-08-19T22:02:38.381Z,100951.31
2022-08-19T22:07:43.019Z,100958.16
2022-08-19T22:12:47.324Z,100971.50
2022-08-19T22:17:54.607Z,100973.81
2022-08-19T22:23:00.473Z,100968.34
2022-08-19T22:28:05.691Z,100978.16
2022-08-19T22:33:11.785Z,100968.34
2022-08-19T22:38:14.717Z,100964.41
2022-08-19T22:43:20.125Z,100969.66
2022-08-19T22:48:24.947Z,100962.28
2022-08-19T22:53:27.243Z,100960.44
2022-08-19T22:58:29.945Z,100960.84
2022-08-19T23:03:33.606Z,100956.31
2022-08-19T23:08:37.596Z,100953.19
2022-08-19T23:13:41.416Z,100957.03
2022-08-19T23:18:43.457Z,100948.81
2022-08-19T23:23:45.178Z,100950.78
2022-08-19T23:29:06.006Z,100954.47
2022-08-19T23:34:08.119Z,100946.22
2022-08-19T23:39:10.127Z,100938.13
2022-08-19T23:44:14.615Z,100943.88
2022-08-19T23:49:16.839Z,100940.13
2022-08-19T23:54:18.677Z,100949.56
2022-08-19T23:59:20.641Z,100931.31
